sensor_id;sensor_type;location;lat;lon;timestamp;pressure;altitude;pressure_sealevel;temperature;humidity
47710;BME280;33473;51.640;5.892;2023-05-10T00:01:56;100700;;;19.7;57.0
47710;BME280;33473;51.640;5.892;2023-05-10T00:15:16;100700;;;19.7;57.0
47710;BME280;33473;51.640;5.892;2023-05-10T00:28:36;100700;;;19.7;57.0
47710;BME280;33473;51.640;5.892;2023-05-10T00:41:55;100700;;;19.7;57.0
47710;BME280;33473;51.640;5.892;2023-05-10T00:55:15;100700;;;19.7;57.0
47710;BME280;33473;51.640;5.892;2023-05-10T01:08:35;100700;;;19.6;57.0
47710;BME280;33473;51.640;5.892;2023-05-10T01:35:14;100700;;;19.5;57.0
47710;BME280;33473;51.640;5.892;2023-05-10T01:48:34;100700;;;19.5;57.0
47710;BME280;33473;51.640;5.892;2023-05-10T02:01:54;100700;;;19.6;57.0
47710;BME280;33473;51.640;5.892;2023-05-10T02:15:14;100700;;;19.5;57.0
47710;BME280;33473;51.640;5.892;2023-05-10T02:28:33;100700;;;19.6;57.0
47710;BME280;33473;51.640;5.892;2023-05-10T02:41:53;100700;;;19.5;57.0
47710;BME280;33473;51.640;5.892;2023-05-10T02:55:13;100700;;;19.4;57.0
47710;BME280;33473;51.640;5.892;2023-05-10T03:08:33;100700;;;19.2;58.0
47710;BME280;33473;51.640;5.892;2023-05-10T03:21:52;100700;;;19.5;57.0
47710;BME280;33473;51.640;5.892;2023-05-10T03:35:12;100700;;;19.6;57.0
47710;BME280;33473;51.640;5.892;2023-05-10T03:48:32;100800;;;19.5;57.0
47710;BME280;33473;51.640;5.892;2023-05-10T04:01:52;100800;;;19.9;56.0
47710;BME280;33473;51.640;5.892;2023-05-10T04:15:11;100800;;;19.9;56.0
47710;BME280;33473;51.640;5.892;2023-05-10T04:28:31;100800;;;19.9;56.0
47710;BME280;33473;51.640;5.892;2023-05-10T04:41:51;100800;;;20.0;56.0
47710;BME280;33473;51.640;5.892;2023-05-10T04:55:10;100800;;;19.8;57.0
47710;BME280;33473;51.640;5.892;2023-05-10T05:08:30;100800;;;19.7;57.0
47710;BME280;33473;51.640;5.892;2023-05-10T05:21:50;100800;;;19.4;57.0
47710;BME280;33473;51.640;5.892;2023-05-10T05:35:09;100800;;;19.1;58.0
47710;BME280;33473;51.640;5.892;2023-05-10T05:48:29;100800;;;19.1;58.0
47710;BME280;33473;51.640;5.892;2023-05-10T06:01:49;100800;;;18.3;60.0
47710;BME280;33473;51.640;5.892;2023-05-10T06:15:09;100800;;;19.0;58.0
47710;BME280;33473;51.640;5.892;2023-05-10T06:28:28;100800;;;19.3;57.0
47710;BME280;33473;51.640;5.892;2023-05-10T06:41:48;100800;;;19.8;57.0
47710;BME280;33473;51.640;5.892;2023-05-10T06:55:08;100900;;;20.1;56.0
47710;BME280;33473;51.640;5.892;2023-05-10T07:08:28;100900;;;20.1;55.0
47710;BME280;33473;51.640;5.892;2023-05-10T07:21:47;100900;;;20.1;55.0
47710;BME280;33473;51.640;5.892;2023-05-10T07:35:07;100900;;;20.2;55.0
47710;BME280;33473;51.640;5.892;2023-05-10T07:48:27;100900;;;19.8;55.0
47710;BME280;33473;51.640;5.892;2023-05-10T08:01:46;100900;;;20.1;55.0
47710;BME280;33473;51.640;5.892;2023-05-10T08:15:06;100900;;;20.2;55.0
47710;BME280;33473;51.640;5.892;2023-05-10T08:28:26;100900;;;20.4;56.0
47710;BME280;33473;51.640;5.892;2023-05-10T08:41:46;100900;;;19.7;55.0
47710;BME280;33473;51.640;5.892;2023-05-10T08:55:05;101000;;;20.3;55.0
47710;BME280;33473;51.640;5.892;2023-05-10T09:08:25;101000;;;20.5;54.0
47710;BME280;33473;51.640;5.892;2023-05-10T09:21:45;101000;;;20.4;54.0
47710;BME280;33473;51.640;5.892;2023-05-10T09:35:04;101000;;;20.8;53.0
47710;BME280;33473;51.640;5.892;2023-05-10T09:48:24;101000;;;21.3;53.0
47710;BME280;33473;51.640;5.892;2023-05-10T10:01:44;101000;;;21.5;52.0
47710;BME280;33473;51.640;5.892;2023-05-10T10:15:04;101000;;;21.8;51.0
47710;BME280;33473;51.640;5.892;2023-05-10T10:28:23;101000;;;21.8;51.0
47710;BME280;33473;51.640;5.892;2023-05-10T10:41:43;101000;;;22.1;49.0
47710;BME280;33473;51.640;5.892;2023-05-10T10:55:03;101000;;;22.2;49.0
47710;BME280;33473;51.640;5.892;2023-05-10T11:08:22;101000;;;22.4;48.0
47710;BME280;33473;51.640;5.892;2023-05-10T11:21:42;101000;;;22.2;48.0
47710;BME280;33473;51.640;5.892;2023-05-10T11:35:02;101000;;;21.9;49.0
47710;BME280;33473;51.640;5.892;2023-05-10T11:48:22;101000;;;22.3;49.0
47710;BME280;33473;51.640;5.892;2023-05-10T12:01:41;101000;;;22.1;48.0
47710;BME280;33473;51.640;5.892;2023-05-10T12:15:01;101000;;;22.0;50.0
47710;BME280;33473;51.640;5.892;2023-05-10T12:28:21;101100;;;21.6;51.0
47710;BME280;33473;51.640;5.892;2023-05-10T12:41:40;101100;;;21.8;51.0
47710;BME280;33473;51.640;5.892;2023-05-10T12:55:00;101100;;;21.7;52.0
47710;BME280;33473;51.640;5.892;2023-05-10T13:08:20;101100;;;21.9;54.0
47710;BME280;33473;51.640;5.892;2023-05-10T13:21:39;101100;;;22.1;52.0
47710;BME280;33473;51.640;5.892;2023-05-10T13:34:59;101100;;;22.4;52.0
47710;BME280;33473;51.640;5.892;2023-05-10T13:48:19;101100;;;22.4;52.0
47710;BME280;33473;51.640;5.892;2023-05-10T14:01:38;101100;;;22.2;52.0
47710;BME280;33473;51.640;5.892;2023-05-10T14:14:58;101100;;;22.3;51.0
47710;BME280;33473;51.640;5.892;2023-05-10T14:28:18;101100;;;22.3;52.0
47710;BME280;33473;51.640;5.892;2023-05-10T14:41:38;101100;;;23.2;51.0
47710;BME280;33473;51.640;5.892;2023-05-10T14:54:57;101100;;;21.6;48.0
47710;BME280;33473;51.640;5.892;2023-05-10T15:08:17;101100;;;21.9;48.0
47710;BME280;33473;51.640;5.892;2023-05-10T15:21:37;101100;;;21.6;50.0
47710;BME280;33473;51.640;5.892;2023-05-10T15:34:56;101100;;;21.3;50.0
47710;BME280;33473;51.640;5.892;2023-05-10T15:48:16;101100;;;22.1;51.0
47710;BME280;33473;51.640;5.892;2023-05-10T16:01:36;101100;;;21.7;49.0
47710;BME280;33473;51.640;5.892;2023-05-10T16:14:55;101100;;;21.9;51.0
47710;BME280;33473;51.640;5.892;2023-05-10T16:28:15;101100;;;21.7;50.0
47710;BME280;33473;51.640;5.892;2023-05-10T16:41:35;101200;;;21.6;49.0
47710;BME280;33473;51.640;5.892;2023-05-10T16:54:55;101200;;;21.7;50.0
47710;BME280;33473;51.640;5.892;2023-05-10T17:08:14;101200;;;22.0;51.0
47710;BME280;33473;51.640;5.892;2023-05-10T17:21:34;101200;;;22.0;50.0
47710;BME280;33473;51.640;5.892;2023-05-10T17:34:54;101200;;;22.0;48.0
47710;BME280;33473;51.640;5.892;2023-05-10T17:48:13;101200;;;22.0;50.0
47710;BME280;33473;51.640;5.892;2023-05-10T18:01:33;101200;;;21.8;50.0
47710;BME280;33473;51.640;5.892;2023-05-10T18:14:53;101200;;;21.4;50.0
47710;BME280;33473;51.640;5.892;2023-05-10T18:28:12;101200;;;21.3;51.0
47710;BME280;33473;51.640;5.892;2023-05-10T18:41:32;101200;;;21.2;52.0
47710;BME280;33473;51.640;5.892;2023-05-10T18:54:52;101200;;;20.9;52.0
47710;BME280;33473;51.640;5.892;2023-05-10T19:08:11;101200;;;20.7;52.0
47710;BME280;33473;51.640;5.892;2023-05-10T19:21:31;101200;;;20.4;53.0
47710;BME280;33473;51.640;5.892;2023-05-10T19:34:51;101200;;;20.2;53.0
47710;BME280;33473;51.640;5.892;2023-05-10T19:48:10;101200;;;19.9;54.0
47710;BME280;33473;51.640;5.892;2023-05-10T20:01:30;101300;;;19.8;54.0
47710;BME280;33473;51.640;5.892;2023-05-10T20:14:50;101300;;;19.7;54.0
47710;BME280;33473;51.640;5.892;2023-05-10T20:28:09;101300;;;19.6;55.0
47710;BME280;33473;51.640;5.892;2023-05-10T20:41:29;101300;;;19.5;55.0
47710;BME280;33473;51.640;5.892;2023-05-10T20:54:49;101300;;;19.4;55.0
47710;BME280;33473;51.640;5.892;2023-05-10T21:08:08;101300;;;19.3;55.0
47710;BME280;33473;51.640;5.892;2023-05-10T21:21:28;101300;;;19.3;55.0
47710;BME280;33473;51.640;5.892;2023-05-10T21:34:48;101300;;;19.3;56.0
47710;BME280;33473;51.640;5.892;2023-05-10T21:48:08;101300;;;19.2;56.0
47710;BME280;33473;51.640;5.892;2023-05-10T22:01:27;101300;;;19.2;56.0
47710;BME280;33473;51.640;5.892;2023-05-10T22:14:47;101300;;;19.2;56.0
47710;BME280;33473;51.640;5.892;2023-05-10T22:28:07;101300;;;19.2;56.0
47710;BME280;33473;51.640;5.892;2023-05-10T22:41:26;101300;;;19.3;56.0
47710;BME280;33473;51.640;5.892;2023-05-10T22:54:46;101300;;;19.3;56.0
47710;BME280;33473;51.640;5.892;2023-05-10T23:08:06;101300;;;19.4;56.0
47710;BME280;33473;51.640;5.892;2023-05-10T23:21:26;101300;;;19.4;56.0
47710;BME280;33473;51.640;5.892;2023-05-10T23:34:45;101300;;;19.3;56.0
47710;BME280;33473;51.640;5.892;2023-05-10T23:48:05;101300;;;19.3;56.0
